sensor_id;sensor_type;location;lat;lon;timestamp;temperature;humidity
13982;DHT22;7065;50.880;5.502;2023-07-29T00:01:59;18.80;99.90
13982;DHT22;7065;50.880;5.502;2023-07-29T00:04:25;18.80;99.90
13982;DHT22;7065;50.880;5.502;2023-07-29T00:06:50;18.80;99.90
13982;DHT22;7065;50.880;5.502;2023-07-29T00:09:16;18.70;99.90
13982;DHT22;7065;50.880;5.502;2023-07-29T00:11:42;18.80;99.90
13982;DHT22;7065;50.880;5.502;2023-07-29T00:14:08;18.70;99.90
13982;DHT22;7065;50.880;5.502;2023-07-29T00:16:33;18.70;99.90
13982;DHT22;7065;50.880;5.502;2023-07-29T00:18:59;18.70;99.90
13982;DHT22;7065;50.880;5.502;2023-07-29T00:21:25;18.80;99.90
13982;DHT22;7065;50.880;5.502;2023-07-29T00:23:50;18.80;99.90
13982;DHT22;7065;50.880;5.502;2023-07-29T00:26:16;18.80;99.90
13982;DHT22;7065;50.880;5.502;2023-07-29T00:28:42;18.80;99.90
13982;DHT22;7065;50.880;5.502;2023-07-29T00:31:07;18.80;99.90
13982;DHT22;7065;50.880;5.502;2023-07-29T00:33:34;18.80;99.90
13982;DHT22;7065;50.880;5.502;2023-07-29T00:36:00;18.80;99.90
13982;DHT22;7065;50.880;5.502;2023-07-29T00:38:29;18.80;99.90
13982;DHT22;7065;50.880;5.502;2023-07-29T00:40:57;18.80;99.90
13982;DHT22;7065;50.880;5.502;2023-07-29T00:43:23;18.80;99.90
13982;DHT22;7065;50.880;5.502;2023-07-29T00:45:49;18.80;99.90
13982;DHT22;7065;50.880;5.502;2023-07-29T00:48:15;18.80;99.90
13982;DHT22;7065;50.880;5.502;2023-07-29T00:50:41;18.80;99.90
13982;DHT22;7065;50.880;5.502;2023-07-29T00:53:07;18.80;99.90
13982;DHT22;7065;50.880;5.502;2023-07-29T00:55:33;18.80;99.90
13982;DHT22;7065;50.880;5.502;2023-07-29T00:57:58;18.80;99.90
13982;DHT22;7065;50.880;5.502;2023-07-29T01:00:25;18.80;99.90
13982;DHT22;7065;50.880;5.502;2023-07-29T01:02:52;18.80;99.90
13982;DHT22;7065;50.880;5.502;2023-07-29T01:05:18;18.80;99.90
13982;DHT22;7065;50.880;5.502;2023-07-29T01:07:56;18.80;99.90
13982;DHT22;7065;50.880;5.502;2023-07-29T01:13:17;18.80;99.90
13982;DHT22;7065;50.880;5.502;2023-07-29T01:16:03;18.70;99.90
13982;DHT22;7065;50.880;5.502;2023-07-29T01:18:35;18.70;99.90
13982;DHT22;7065;50.880;5.502;2023-07-29T01:21:07;18.70;99.90
13982;DHT22;7065;50.880;5.502;2023-07-29T01:23:35;18.70;99.90
13982;DHT22;7065;50.880;5.502;2023-07-29T01:26:02;18.70;99.90
13982;DHT22;7065;50.880;5.502;2023-07-29T01:28:28;18.60;99.90
13982;DHT22;7065;50.880;5.502;2023-07-29T01:31:23;18.60;99.90
13982;DHT22;7065;50.880;5.502;2023-07-29T01:33:58;18.60;99.90
13982;DHT22;7065;50.880;5.502;2023-07-29T01:36:27;18.60;99.90
13982;DHT22;7065;50.880;5.502;2023-07-29T01:38:54;18.60;99.90
13982;DHT22;7065;50.880;5.502;2023-07-29T01:41:20;18.50;99.90
13982;DHT22;7065;50.880;5.502;2023-07-29T01:43:47;18.50;99.90
13982;DHT22;7065;50.880;5.502;2023-07-29T01:46:14;18.50;99.90
13982;DHT22;7065;50.880;5.502;2023-07-29T01:48:39;18.40;99.90
13982;DHT22;7065;50.880;5.502;2023-07-29T01:51:06;18.40;99.90
13982;DHT22;7065;50.880;5.502;2023-07-29T01:53:32;18.40;99.90
13982;DHT22;7065;50.880;5.502;2023-07-29T01:55:57;18.40;99.90
13982;DHT22;7065;50.880;5.502;2023-07-29T01:58:24;18.40;99.90
13982;DHT22;7065;50.880;5.502;2023-07-29T02:00:50;18.30;99.90
13982;DHT22;7065;50.880;5.502;2023-07-29T02:03:16;18.30;99.90
13982;DHT22;7065;50.880;5.502;2023-07-29T02:05:42;18.30;99.90
13982;DHT22;7065;50.880;5.502;2023-07-29T02:08:09;18.30;99.90
13982;DHT22;7065;50.880;5.502;2023-07-29T02:10:35;18.30;99.90
13982;DHT22;7065;50.880;5.502;2023-07-29T02:13:01;18.30;99.90
13982;DHT22;7065;50.880;5.502;2023-07-29T02:15:27;18.30;99.90
13982;DHT22;7065;50.880;5.502;2023-07-29T02:17:53;18.30;99.90
13982;DHT22;7065;50.880;5.502;2023-07-29T02:20:19;18.20;99.90
13982;DHT22;7065;50.880;5.502;2023-07-29T02:22:44;18.20;99.90
13982;DHT22;7065;50.880;5.502;2023-07-29T02:25:10;18.20;99.90
13982;DHT22;7065;50.880;5.502;2023-07-29T02:27:36;18.10;99.90
13982;DHT22;7065;50.880;5.502;2023-07-29T02:30:02;18.10;99.90
13982;DHT22;7065;50.880;5.502;2023-07-29T02:32:28;18.00;99.90
13982;DHT22;7065;50.880;5.502;2023-07-29T02:34:54;18.00;99.90
13982;DHT22;7065;50.880;5.502;2023-07-29T02:37:20;18.00;99.90
13982;DHT22;7065;50.880;5.502;2023-07-29T02:39:46;17.90;99.90
13982;DHT22;7065;50.880;5.502;2023-07-29T02:42:12;17.90;99.90
13982;DHT22;7065;50.880;5.502;2023-07-29T02:44:38;17.90;99.90
13982;DHT22;7065;50.880;5.502;2023-07-29T02:47:04;17.80;99.90
13982;DHT22;7065;50.880;5.502;2023-07-29T02:49:30;17.80;99.90
13982;DHT22;7065;50.880;5.502;2023-07-29T02:51:55;17.80;99.90
13982;DHT22;7065;50.880;5.502;2023-07-29T02:54:21;17.80;99.90
13982;DHT22;7065;50.880;5.502;2023-07-29T02:56:47;17.70;99.90
13982;DHT22;7065;50.880;5.502;2023-07-29T02:59:13;17.70;99.90
13982;DHT22;7065;50.880;5.502;2023-07-29T03:01:38;17.60;99.90
13982;DHT22;7065;50.880;5.502;2023-07-29T03:04:04;17.60;99.90
13982;DHT22;7065;50.880;5.502;2023-07-29T03:06:30;17.60;99.90
13982;DHT22;7065;50.880;5.502;2023-07-29T03:08:55;17.60;99.90
13982;DHT22;7065;50.880;5.502;2023-07-29T03:11:21;17.50;99.90
13982;DHT22;7065;50.880;5.502;2023-07-29T03:13:47;17.50;99.90
13982;DHT22;7065;50.880;5.502;2023-07-29T03:16:15;17.40;99.90
13982;DHT22;7065;50.880;5.502;2023-07-29T03:18:42;17.40;99.90
13982;DHT22;7065;50.880;5.502;2023-07-29T03:21:08;17.30;99.90
13982;DHT22;7065;50.880;5.502;2023-07-29T03:23:36;17.30;99.90
13982;DHT22;7065;50.880;5.502;2023-07-29T03:26:03;17.20;99.90
13982;DHT22;7065;50.880;5.502;2023-07-29T03:28:42;17.20;99.90
13982;DHT22;7065;50.880;5.502;2023-07-29T03:31:09;17.20;99.90
13982;DHT22;7065;50.880;5.502;2023-07-29T03:33:35;17.10;99.90
13982;DHT22;7065;50.880;5.502;2023-07-29T03:36:01;17.10;99.90
13982;DHT22;7065;50.880;5.502;2023-07-29T03:38:27;17.10;99.90
13982;DHT22;7065;50.880;5.502;2023-07-29T03:40:53;17.10;99.90
13982;DHT22;7065;50.880;5.502;2023-07-29T03:43:19;17.10;99.90
13982;DHT22;7065;50.880;5.502;2023-07-29T03:45:45;17.10;99.90
13982;DHT22;7065;50.880;5.502;2023-07-29T03:48:10;17.00;99.90
13982;DHT22;7065;50.880;5.502;2023-07-29T03:50:37;17.00;99.90
13982;DHT22;7065;50.880;5.502;2023-07-29T03:53:03;17.00;99.90
13982;DHT22;7065;50.880;5.502;2023-07-29T03:55:29;17.00;99.90
13982;DHT22;7065;50.880;5.502;2023-07-29T03:57:59;17.00;99.90
13982;DHT22;7065;50.880;5.502;2023-07-29T04:00:25;17.00;99.90
13982;DHT22;7065;50.880;5.502;2023-07-29T04:02:51;17.00;99.90
13982;DHT22;7065;50.880;5.502;2023-07-29T04:05:17;16.90;99.90
13982;DHT22;7065;50.880;5.502;2023-07-29T04:07:43;16.90;99.90
13982;DHT22;7065;50.880;5.502;2023-07-29T04:10:09;16.90;99.90
13982;DHT22;7065;50.880;5.502;2023-07-29T04:12:35;16.80;99.90
13982;DHT22;7065;50.880;5.502;2023-07-29T04:15:00;16.80;99.90
13982;DHT22;7065;50.880;5.502;2023-07-29T04:17:26;16.80;99.90
13982;DHT22;7065;50.880;5.502;2023-07-29T04:19:52;16.70;99.90
13982;DHT22;7065;50.880;5.502;2023-07-29T04:22:17;16.70;99.90
13982;DHT22;7065;50.880;5.502;2023-07-29T04:24:43;16.70;99.90
13982;DHT22;7065;50.880;5.502;2023-07-29T04:27:09;16.70;99.90
13982;DHT22;7065;50.880;5.502;2023-07-29T04:29:35;16.80;99.90
13982;DHT22;7065;50.880;5.502;2023-07-29T04:32:02;16.70;99.90
13982;DHT22;7065;50.880;5.502;2023-07-29T04:34:28;16.70;99.90
13982;DHT22;7065;50.880;5.502;2023-07-29T04:36:54;16.70;99.90
13982;DHT22;7065;50.880;5.502;2023-07-29T04:39:20;16.70;99.90
13982;DHT22;7065;50.880;5.502;2023-07-29T04:41:46;16.70;99.90
13982;DHT22;7065;50.880;5.502;2023-07-29T04:44:12;16.80;99.90
13982;DHT22;7065;50.880;5.502;2023-07-29T04:46:37;16.70;99.90
13982;DHT22;7065;50.880;5.502;2023-07-29T04:49:04;16.70;99.90
13982;DHT22;7065;50.880;5.502;2023-07-29T04:51:30;16.70;99.90
13982;DHT22;7065;50.880;5.502;2023-07-29T04:53:57;16.80;99.90
13982;DHT22;7065;50.880;5.502;2023-07-29T04:56:23;16.70;99.90
13982;DHT22;7065;50.880;5.502;2023-07-29T04:58:48;16.80;99.90
13982;DHT22;7065;50.880;5.502;2023-07-29T05:01:14;16.80;99.90
13982;DHT22;7065;50.880;5.502;2023-07-29T05:03:40;16.80;99.90
13982;DHT22;7065;50.880;5.502;2023-07-29T05:06:06;16.80;99.90
13982;DHT22;7065;50.880;5.502;2023-07-29T05:08:31;16.80;99.90
13982;DHT22;7065;50.880;5.502;2023-07-29T05:10:57;16.80;99.90
13982;DHT22;7065;50.880;5.502;2023-07-29T05:13:23;16.80;99.90
13982;DHT22;7065;50.880;5.502;2023-07-29T05:15:49;16.80;99.90
13982;DHT22;7065;50.880;5.502;2023-07-29T05:18:16;16.70;99.90
13982;DHT22;7065;50.880;5.502;2023-07-29T05:20:42;16.70;99.90
13982;DHT22;7065;50.880;5.502;2023-07-29T05:23:08;16.70;99.90
13982;DHT22;7065;50.880;5.502;2023-07-29T05:25:33;16.70;99.90
13982;DHT22;7065;50.880;5.502;2023-07-29T05:28:02;16.80;99.90
13982;DHT22;7065;50.880;5.502;2023-07-29T05:30:29;16.80;99.90
13982;DHT22;7065;50.880;5.502;2023-07-29T05:32:58;16.80;99.90
13982;DHT22;7065;50.880;5.502;2023-07-29T05:35:24;16.80;99.90
13982;DHT22;7065;50.880;5.502;2023-07-29T05:37:50;16.90;99.90
13982;DHT22;7065;50.880;5.502;2023-07-29T05:40:16;17.00;99.90
13982;DHT22;7065;50.880;5.502;2023-07-29T05:42:42;17.00;99.90
13982;DHT22;7065;50.880;5.502;2023-07-29T05:45:08;17.00;99.90
13982;DHT22;7065;50.880;5.502;2023-07-29T05:47:35;17.10;99.90
13982;DHT22;7065;50.880;5.502;2023-07-29T05:50:01;17.10;99.90
13982;DHT22;7065;50.880;5.502;2023-07-29T05:52:30;17.10;99.90
13982;DHT22;7065;50.880;5.502;2023-07-29T05:54:56;17.10;99.90
13982;DHT22;7065;50.880;5.502;2023-07-29T05:57:22;17.10;99.90
13982;DHT22;7065;50.880;5.502;2023-07-29T05:59:48;17.10;99.90
13982;DHT22;7065;50.880;5.502;2023-07-29T06:02:13;17.20;99.90
13982;DHT22;7065;50.880;5.502;2023-07-29T06:04:39;17.20;99.90
13982;DHT22;7065;50.880;5.502;2023-07-29T06:07:05;17.20;99.90
13982;DHT22;7065;50.880;5.502;2023-07-29T06:09:31;17.20;99.90
13982;DHT22;7065;50.880;5.502;2023-07-29T06:11:57;17.20;99.90
13982;DHT22;7065;50.880;5.502;2023-07-29T06:14:23;17.20;99.90
13982;DHT22;7065;50.880;5.502;2023-07-29T06:16:49;17.20;99.90
13982;DHT22;7065;50.880;5.502;2023-07-29T06:19:15;17.20;99.90
13982;DHT22;7065;50.880;5.502;2023-07-29T06:21:41;17.10;99.90
13982;DHT22;7065;50.880;5.502;2023-07-29T06:24:06;17.10;99.90
13982;DHT22;7065;50.880;5.502;2023-07-29T06:26:32;17.10;99.90
13982;DHT22;7065;50.880;5.502;2023-07-29T06:28:58;17.10;99.90
13982;DHT22;7065;50.880;5.502;2023-07-29T06:31:23;17.10;99.90
13982;DHT22;7065;50.880;5.502;2023-07-29T06:33:49;17.20;99.90
13982;DHT22;7065;50.880;5.502;2023-07-29T06:36:15;17.30;99.90
13982;DHT22;7065;50.880;5.502;2023-07-29T06:38:41;17.40;99.90
13982;DHT22;7065;50.880;5.502;2023-07-29T06:41:07;17.50;99.90
13982;DHT22;7065;50.880;5.502;2023-07-29T06:43:32;17.50;99.90
13982;DHT22;7065;50.880;5.502;2023-07-29T06:45:58;17.60;99.90
13982;DHT22;7065;50.880;5.502;2023-07-29T06:48:24;17.70;99.90
13982;DHT22;7065;50.880;5.502;2023-07-29T06:50:50;17.80;99.90
13982;DHT22;7065;50.880;5.502;2023-07-29T06:53:16;17.90;99.90
13982;DHT22;7065;50.880;5.502;2023-07-29T06:55:43;17.90;99.90
13982;DHT22;7065;50.880;5.502;2023-07-29T06:58:08;17.90;99.90
13982;DHT22;7065;50.880;5.502;2023-07-29T07:00:34;18.00;99.90
13982;DHT22;7065;50.880;5.502;2023-07-29T07:03:00;18.00;99.90
13982;DHT22;7065;50.880;5.502;2023-07-29T07:05:25;18.10;99.90
13982;DHT22;7065;50.880;5.502;2023-07-29T07:07:51;18.20;99.90
13982;DHT22;7065;50.880;5.502;2023-07-29T07:10:17;18.20;99.90
13982;DHT22;7065;50.880;5.502;2023-07-29T07:12:43;18.20;99.90
13982;DHT22;7065;50.880;5.502;2023-07-29T07:15:09;18.30;99.90
13982;DHT22;7065;50.880;5.502;2023-07-29T07:17:35;18.40;99.90
13982;DHT22;7065;50.880;5.502;2023-07-29T07:20:01;18.50;99.90
13982;DHT22;7065;50.880;5.502;2023-07-29T07:22:27;18.50;99.90
13982;DHT22;7065;50.880;5.502;2023-07-29T07:24:52;18.60;99.90
13982;DHT22;7065;50.880;5.502;2023-07-29T07:27:18;18.70;99.90
13982;DHT22;7065;50.880;5.502;2023-07-29T07:29:44;18.80;99.90
13982;DHT22;7065;50.880;5.502;2023-07-29T07:32:10;18.90;99.90
13982;DHT22;7065;50.880;5.502;2023-07-29T07:34:35;18.90;99.90
13982;DHT22;7065;50.880;5.502;2023-07-29T07:37:01;18.80;99.90
13982;DHT22;7065;50.880;5.502;2023-07-29T07:39:27;18.70;99.90
13982;DHT22;7065;50.880;5.502;2023-07-29T07:41:52;18.70;99.90
13982;DHT22;7065;50.880;5.502;2023-07-29T07:44:18;18.70;99.90
13982;DHT22;7065;50.880;5.502;2023-07-29T07:46:45;18.70;99.90
13982;DHT22;7065;50.880;5.502;2023-07-29T07:49:11;18.70;99.90
13982;DHT22;7065;50.880;5.502;2023-07-29T07:51:38;18.80;99.90
13982;DHT22;7065;50.880;5.502;2023-07-29T07:54:03;18.80;99.90
13982;DHT22;7065;50.880;5.502;2023-07-29T07:56:29;18.80;99.90
13982;DHT22;7065;50.880;5.502;2023-07-29T07:58:55;18.80;99.90
13982;DHT22;7065;50.880;5.502;2023-07-29T08:01:21;18.80;99.90
13982;DHT22;7065;50.880;5.502;2023-07-29T08:03:47;18.90;99.90
13982;DHT22;7065;50.880;5.502;2023-07-29T08:06:13;19.00;99.90
13982;DHT22;7065;50.880;5.502;2023-07-29T08:08:38;19.10;99.90
13982;DHT22;7065;50.880;5.502;2023-07-29T08:11:04;19.20;99.90
13982;DHT22;7065;50.880;5.502;2023-07-29T08:13:30;19.20;99.90
13982;DHT22;7065;50.880;5.502;2023-07-29T08:15:56;19.20;99.90
13982;DHT22;7065;50.880;5.502;2023-07-29T08:18:21;19.20;99.90
13982;DHT22;7065;50.880;5.502;2023-07-29T08:20:58;19.30;99.90
13982;DHT22;7065;50.880;5.502;2023-07-29T08:23:26;19.40;99.90
13982;DHT22;7065;50.880;5.502;2023-07-29T08:25:57;19.50;99.90
13982;DHT22;7065;50.880;5.502;2023-07-29T08:28:28;19.60;99.90
13982;DHT22;7065;50.880;5.502;2023-07-29T08:30:54;19.70;99.90
13982;DHT22;7065;50.880;5.502;2023-07-29T08:33:20;19.80;99.90
13982;DHT22;7065;50.880;5.502;2023-07-29T08:35:45;19.90;99.90
13982;DHT22;7065;50.880;5.502;2023-07-29T08:38:12;20.00;99.90
13982;DHT22;7065;50.880;5.502;2023-07-29T08:41:29;20.20;99.90
13982;DHT22;7065;50.880;5.502;2023-07-29T08:43:31;20.40;99.90
13982;DHT22;7065;50.880;5.502;2023-07-29T08:45:58;20.40;99.90
13982;DHT22;7065;50.880;5.502;2023-07-29T08:48:45;20.40;99.90
13982;DHT22;7065;50.880;5.502;2023-07-29T08:51:11;20.30;99.90
13982;DHT22;7065;50.880;5.502;2023-07-29T08:53:39;20.30;99.90
13982;DHT22;7065;50.880;5.502;2023-07-29T08:56:07;20.30;99.90
13982;DHT22;7065;50.880;5.502;2023-07-29T08:58:33;20.30;99.90
13982;DHT22;7065;50.880;5.502;2023-07-29T09:00:59;20.30;99.90
13982;DHT22;7065;50.880;5.502;2023-07-29T09:03:25;20.30;99.90
13982;DHT22;7065;50.880;5.502;2023-07-29T09:05:51;20.30;99.90
13982;DHT22;7065;50.880;5.502;2023-07-29T09:08:17;20.20;99.90
13982;DHT22;7065;50.880;5.502;2023-07-29T09:10:43;20.20;99.90
13982;DHT22;7065;50.880;5.502;2023-07-29T09:13:09;20.20;99.90
13982;DHT22;7065;50.880;5.502;2023-07-29T09:15:35;20.30;99.90
13982;DHT22;7065;50.880;5.502;2023-07-29T09:18:21;20.40;99.90
13982;DHT22;7065;50.880;5.502;2023-07-29T09:20:48;20.30;99.90
13982;DHT22;7065;50.880;5.502;2023-07-29T09:23:14;20.30;99.90
13982;DHT22;7065;50.880;5.502;2023-07-29T09:25:40;20.40;99.90
13982;DHT22;7065;50.880;5.502;2023-07-29T09:28:14;20.50;99.90
13982;DHT22;7065;50.880;5.502;2023-07-29T09:30:45;20.60;99.90
13982;DHT22;7065;50.880;5.502;2023-07-29T09:33:10;20.80;99.90
13982;DHT22;7065;50.880;5.502;2023-07-29T09:35:37;20.90;99.90
13982;DHT22;7065;50.880;5.502;2023-07-29T09:38:06;21.00;99.90
13982;DHT22;7065;50.880;5.502;2023-07-29T09:40:39;21.10;99.90
13982;DHT22;7065;50.880;5.502;2023-07-29T09:43:06;21.30;99.90
13982;DHT22;7065;50.880;5.502;2023-07-29T09:45:36;21.30;99.90
13982;DHT22;7065;50.880;5.502;2023-07-29T09:48:04;21.40;99.90
13982;DHT22;7065;50.880;5.502;2023-07-29T09:50:35;21.40;99.90
13982;DHT22;7065;50.880;5.502;2023-07-29T09:53:02;21.30;99.90
13982;DHT22;7065;50.880;5.502;2023-07-29T09:55:28;21.40;99.90
13982;DHT22;7065;50.880;5.502;2023-07-29T09:57:59;21.30;99.90
13982;DHT22;7065;50.880;5.502;2023-07-29T10:00:31;21.20;99.90
13982;DHT22;7065;50.880;5.502;2023-07-29T10:02:58;21.10;99.90
13982;DHT22;7065;50.880;5.502;2023-07-29T10:05:26;21.00;99.90
13982;DHT22;7065;50.880;5.502;2023-07-29T10:07:54;21.00;99.90
13982;DHT22;7065;50.880;5.502;2023-07-29T10:10:20;21.10;99.90
13982;DHT22;7065;50.880;5.502;2023-07-29T10:12:46;21.30;99.90
13982;DHT22;7065;50.880;5.502;2023-07-29T10:15:12;21.40;99.90
13982;DHT22;7065;50.880;5.502;2023-07-29T10:17:39;21.60;99.90
13982;DHT22;7065;50.880;5.502;2023-07-29T10:20:07;21.80;99.90
13982;DHT22;7065;50.880;5.502;2023-07-29T10:22:41;21.90;99.90
13982;DHT22;7065;50.880;5.502;2023-07-29T10:30:11;21.90;99.90
13982;DHT22;7065;50.880;5.502;2023-07-29T10:32:39;22.00;99.90
13982;DHT22;7065;50.880;5.502;2023-07-29T10:35:07;22.10;99.90
13982;DHT22;7065;50.880;5.502;2023-07-29T10:37:33;22.10;99.90
13982;DHT22;7065;50.880;5.502;2023-07-29T10:39:59;22.30;99.90
13982;DHT22;7065;50.880;5.502;2023-07-29T10:42:25;22.40;99.90
13982;DHT22;7065;50.880;5.502;2023-07-29T10:44:52;22.50;99.90
13982;DHT22;7065;50.880;5.502;2023-07-29T10:47:19;22.60;99.90
13982;DHT22;7065;50.880;5.502;2023-07-29T10:49:47;22.80;99.90
13982;DHT22;7065;50.880;5.502;2023-07-29T10:52:14;22.90;99.90
13982;DHT22;7065;50.880;5.502;2023-07-29T10:54:46;22.90;99.90
13982;DHT22;7065;50.880;5.502;2023-07-29T10:57:33;23.00;99.90
13982;DHT22;7065;50.880;5.502;2023-07-29T10:59:59;23.00;99.90
13982;DHT22;7065;50.880;5.502;2023-07-29T11:02:57;23.20;99.90
13982;DHT22;7065;50.880;5.502;2023-07-29T11:05:25;23.30;99.90
13982;DHT22;7065;50.880;5.502;2023-07-29T11:07:51;23.30;99.90
13982;DHT22;7065;50.880;5.502;2023-07-29T11:10:17;23.30;99.90
13982;DHT22;7065;50.880;5.502;2023-07-29T11:12:44;23.50;99.90
13982;DHT22;7065;50.880;5.502;2023-07-29T11:20:08;23.50;99.90
13982;DHT22;7065;50.880;5.502;2023-07-29T11:22:35;23.30;99.90
13982;DHT22;7065;50.880;5.502;2023-07-29T11:25:01;23.20;99.90
13982;DHT22;7065;50.880;5.502;2023-07-29T11:27:27;23.20;99.90
13982;DHT22;7065;50.880;5.502;2023-07-29T11:30:00;23.10;99.90
13982;DHT22;7065;50.880;5.502;2023-07-29T11:32:26;23.00;99.90
13982;DHT22;7065;50.880;5.502;2023-07-29T11:34:52;22.60;99.90
13982;DHT22;7065;50.880;5.502;2023-07-29T11:37:17;22.30;99.90
13982;DHT22;7065;50.880;5.502;2023-07-29T11:39:46;22.00;99.90
13982;DHT22;7065;50.880;5.502;2023-07-29T11:42:12;21.80;99.90
13982;DHT22;7065;50.880;5.502;2023-07-29T11:44:38;21.60;99.90
13982;DHT22;7065;50.880;5.502;2023-07-29T11:47:08;21.40;99.90
13982;DHT22;7065;50.880;5.502;2023-07-29T11:49:34;21.30;99.90
13982;DHT22;7065;50.880;5.502;2023-07-29T11:52:01;21.10;99.90
13982;DHT22;7065;50.880;5.502;2023-07-29T11:54:27;20.90;99.90
13982;DHT22;7065;50.880;5.502;2023-07-29T11:56:55;20.70;99.90
13982;DHT22;7065;50.880;5.502;2023-07-29T11:59:21;20.50;99.90
13982;DHT22;7065;50.880;5.502;2023-07-29T12:01:46;20.40;99.90
13982;DHT22;7065;50.880;5.502;2023-07-29T12:04:13;20.30;99.90
13982;DHT22;7065;50.880;5.502;2023-07-29T12:06:40;20.20;99.90
13982;DHT22;7065;50.880;5.502;2023-07-29T12:09:06;20.10;99.90
13982;DHT22;7065;50.880;5.502;2023-07-29T12:11:33;19.90;99.90
13982;DHT22;7065;50.880;5.502;2023-07-29T12:14:00;19.50;99.90
13982;DHT22;7065;50.880;5.502;2023-07-29T12:16:26;18.90;99.90
13982;DHT22;7065;50.880;5.502;2023-07-29T12:18:51;18.20;99.90
13982;DHT22;7065;50.880;5.502;2023-07-29T12:21:19;17.70;99.90
13982;DHT22;7065;50.880;5.502;2023-07-29T12:23:44;17.40;99.90
13982;DHT22;7065;50.880;5.502;2023-07-29T12:26:10;17.50;99.90
13982;DHT22;7065;50.880;5.502;2023-07-29T12:28:36;17.50;99.90
13982;DHT22;7065;50.880;5.502;2023-07-29T12:31:01;17.60;99.90
13982;DHT22;7065;50.880;5.502;2023-07-29T12:33:37;17.60;99.90
13982;DHT22;7065;50.880;5.502;2023-07-29T12:36:07;17.70;99.90
13982;DHT22;7065;50.880;5.502;2023-07-29T12:38:33;17.70;99.90
13982;DHT22;7065;50.880;5.502;2023-07-29T12:40:59;17.70;99.90
13982;DHT22;7065;50.880;5.502;2023-07-29T12:43:25;17.80;99.90
13982;DHT22;7065;50.880;5.502;2023-07-29T12:45:52;17.80;99.90
13982;DHT22;7065;50.880;5.502;2023-07-29T12:48:17;17.90;99.90
13982;DHT22;7065;50.880;5.502;2023-07-29T12:50:43;18.00;99.90
13982;DHT22;7065;50.880;5.502;2023-07-29T12:53:09;18.20;99.90
13982;DHT22;7065;50.880;5.502;2023-07-29T12:55:36;18.40;99.90
13982;DHT22;7065;50.880;5.502;2023-07-29T12:58:02;18.70;99.90
13982;DHT22;7065;50.880;5.502;2023-07-29T13:00:28;18.90;99.90
13982;DHT22;7065;50.880;5.502;2023-07-29T13:02:54;19.10;99.90
13982;DHT22;7065;50.880;5.502;2023-07-29T13:05:19;19.20;99.90
13982;DHT22;7065;50.880;5.502;2023-07-29T13:07:45;19.30;99.90
13982;DHT22;7065;50.880;5.502;2023-07-29T13:10:11;19.50;99.90
13982;DHT22;7065;50.880;5.502;2023-07-29T13:12:37;19.80;99.90
13982;DHT22;7065;50.880;5.502;2023-07-29T13:15:03;20.00;99.90
13982;DHT22;7065;50.880;5.502;2023-07-29T13:17:30;20.30;99.90
13982;DHT22;7065;50.880;5.502;2023-07-29T13:19:56;20.30;99.90
13982;DHT22;7065;50.880;5.502;2023-07-29T13:22:21;20.30;99.90
13982;DHT22;7065;50.880;5.502;2023-07-29T13:24:47;20.50;99.90
13982;DHT22;7065;50.880;5.502;2023-07-29T13:27:13;20.60;99.90
13982;DHT22;7065;50.880;5.502;2023-07-29T13:29:39;20.70;99.90
13982;DHT22;7065;50.880;5.502;2023-07-29T13:32:06;20.60;99.90
13982;DHT22;7065;50.880;5.502;2023-07-29T13:34:31;20.70;99.90
13982;DHT22;7065;50.880;5.502;2023-07-29T13:36:57;20.80;99.90
13982;DHT22;7065;50.880;5.502;2023-07-29T13:39:23;20.70;99.90
13982;DHT22;7065;50.880;5.502;2023-07-29T13:41:49;20.70;99.90
13982;DHT22;7065;50.880;5.502;2023-07-29T13:44:14;20.80;99.90
13982;DHT22;7065;50.880;5.502;2023-07-29T13:46:40;20.70;99.90
13982;DHT22;7065;50.880;5.502;2023-07-29T13:49:06;20.70;99.90
13982;DHT22;7065;50.880;5.502;2023-07-29T13:51:31;20.70;99.90
13982;DHT22;7065;50.880;5.502;2023-07-29T13:53:57;20.50;99.90
13982;DHT22;7065;50.880;5.502;2023-07-29T13:56:23;20.40;99.90
13982;DHT22;7065;50.880;5.502;2023-07-29T13:58:49;20.30;99.90
13982;DHT22;7065;50.880;5.502;2023-07-29T14:01:15;20.20;99.90
13982;DHT22;7065;50.880;5.502;2023-07-29T14:03:40;20.00;99.90
13982;DHT22;7065;50.880;5.502;2023-07-29T14:06:06;19.90;99.90
13982;DHT22;7065;50.880;5.502;2023-07-29T14:08:32;19.90;99.90
13982;DHT22;7065;50.880;5.502;2023-07-29T14:10:57;20.00;99.90
13982;DHT22;7065;50.880;5.502;2023-07-29T14:13:23;20.30;99.90
13982;DHT22;7065;50.880;5.502;2023-07-29T14:15:49;20.50;99.90
13982;DHT22;7065;50.880;5.502;2023-07-29T14:18:14;20.80;99.90
13982;DHT22;7065;50.880;5.502;2023-07-29T14:20:40;20.90;99.90
13982;DHT22;7065;50.880;5.502;2023-07-29T14:23:06;21.00;99.90
13982;DHT22;7065;50.880;5.502;2023-07-29T14:25:32;20.90;99.90
13982;DHT22;7065;50.880;5.502;2023-07-29T14:27:58;20.90;99.90
13982;DHT22;7065;50.880;5.502;2023-07-29T14:30:23;20.90;99.90
13982;DHT22;7065;50.880;5.502;2023-07-29T14:32:49;20.90;99.90
13982;DHT22;7065;50.880;5.502;2023-07-29T14:35:15;21.10;99.90
13982;DHT22;7065;50.880;5.502;2023-07-29T14:37:41;21.20;99.90
13982;DHT22;7065;50.880;5.502;2023-07-29T14:40:07;21.20;99.90
13982;DHT22;7065;50.880;5.502;2023-07-29T14:42:33;21.30;99.90
13982;DHT22;7065;50.880;5.502;2023-07-29T14:44:58;21.50;99.90
13982;DHT22;7065;50.880;5.502;2023-07-29T14:47:24;21.70;99.90
13982;DHT22;7065;50.880;5.502;2023-07-29T14:49:50;22.00;99.90
13982;DHT22;7065;50.880;5.502;2023-07-29T14:52:16;22.00;99.90
13982;DHT22;7065;50.880;5.502;2023-07-29T14:54:41;22.00;99.90
13982;DHT22;7065;50.880;5.502;2023-07-29T14:57:07;22.00;99.90
13982;DHT22;7065;50.880;5.502;2023-07-29T14:59:33;22.00;99.90
13982;DHT22;7065;50.880;5.502;2023-07-29T15:01:59;22.00;99.90
13982;DHT22;7065;50.880;5.502;2023-07-29T15:04:24;22.00;99.90
13982;DHT22;7065;50.880;5.502;2023-07-29T15:06:50;22.00;99.90
13982;DHT22;7065;50.880;5.502;2023-07-29T15:09:16;21.90;99.90
13982;DHT22;7065;50.880;5.502;2023-07-29T15:11:42;21.80;99.90
13982;DHT22;7065;50.880;5.502;2023-07-29T15:14:07;21.70;99.90
13982;DHT22;7065;50.880;5.502;2023-07-29T15:16:33;21.70;99.90
13982;DHT22;7065;50.880;5.502;2023-07-29T15:19:03;21.60;99.90
13982;DHT22;7065;50.880;5.502;2023-07-29T15:21:32;21.60;99.90
13982;DHT22;7065;50.880;5.502;2023-07-29T15:24:00;21.90;99.90
13982;DHT22;7065;50.880;5.502;2023-07-29T15:26:26;22.10;99.90
13982;DHT22;7065;50.880;5.502;2023-07-29T15:28:52;22.30;99.90
13982;DHT22;7065;50.880;5.502;2023-07-29T15:31:19;22.40;99.90
13982;DHT22;7065;50.880;5.502;2023-07-29T15:33:44;22.70;99.90
13982;DHT22;7065;50.880;5.502;2023-07-29T15:36:10;22.70;99.90
13982;DHT22;7065;50.880;5.502;2023-07-29T15:38:36;22.70;99.90
13982;DHT22;7065;50.880;5.502;2023-07-29T15:41:02;22.80;99.90
13982;DHT22;7065;50.880;5.502;2023-07-29T15:43:27;22.90;99.90
13982;DHT22;7065;50.880;5.502;2023-07-29T15:45:53;22.90;99.90
13982;DHT22;7065;50.880;5.502;2023-07-29T15:48:19;22.80;99.90
13982;DHT22;7065;50.880;5.502;2023-07-29T15:50:45;22.80;99.90
13982;DHT22;7065;50.880;5.502;2023-07-29T15:53:11;22.70;99.90
13982;DHT22;7065;50.880;5.502;2023-07-29T15:55:36;22.60;99.90